Taylor, Idaho
Current Conditions -  °F | °C
As of 11:53 AM on Friday 31 Oct 2014 (Local Time) from KIDA Reporting Station
Clear Clear  
Wind Chill: 62°   Ceiling: Unl
Heat Index: 62°   Visibility: 10mi
Dew Point: 31°   Wind: 3mph
Humidity: 31%   Direction: 160°SSE
Pressure: 29.96"   Gusts: NA
Location:  43.498°N, 111.73°W
Report Text: KIDA 311753Z 16003KT 10SM R20/5500VP6000FT CLR 17/M01 A2996 RMK AO2 SLP130 T01671006 10167 20000 58009
Loading
Personal Weather Stations






























Interactive Weather Map
Tropical Storm Tracking
New forecast layout! Learn more

10-Day Weather Forecast

Advertisements
Track Severe Weather on mobile